createdAt,value
2022-11-03T00:00:20.071Z,4
2022-11-03T00:05:19.996Z,4
2022-11-03T00:10:16.843Z,3
2022-11-03T00:15:20.532Z,2
2022-11-03T00:20:20.022Z,2
2022-11-03T00:25:19.985Z,3
2022-11-03T00:30:20.007Z,1
2022-11-03T00:35:20.071Z,1
2022-11-03T00:40:20.004Z,1
2022-11-03T00:45:20.017Z,1
2022-11-03T00:50:17.504Z,1
2022-11-03T00:55:20.048Z,1
2022-11-03T01:00:17.089Z,1
2022-11-03T01:05:20.033Z,1
2022-11-03T01:10:20.067Z,1
2022-11-03T01:15:20.016Z,1
2022-11-03T01:20:20.545Z,1
2022-11-03T01:25:20.038Z,1
2022-11-03T01:30:20.027Z,2
2022-11-03T01:35:20.045Z,2
2022-11-03T01:40:20.056Z,2
2022-11-03T01:45:20.055Z,2
2022-11-03T01:50:20.038Z,1
2022-11-03T01:55:20.540Z,1
2022-11-03T02:00:17.106Z,1
2022-11-03T02:05:17.082Z,1
2022-11-03T02:10:20.124Z,0
2022-11-03T02:15:17.104Z,1
2022-11-03T02:20:17.102Z,0
2022-11-03T02:25:20.059Z,1
2022-11-03T02:30:20.554Z,2
2022-11-03T02:35:20.118Z,1
2022-11-03T02:40:20.115Z,2
2022-11-03T02:45:20.108Z,3
2022-11-03T02:50:17.099Z,2
2022-11-03T02:55:20.117Z,2
2022-11-03T03:00:20.100Z,2
2022-11-03T03:05:20.590Z,1
2022-11-03T03:10:20.067Z,1
2022-11-03T03:15:20.079Z,1
2022-11-03T03:20:17.122Z,0
2022-11-03T03:25:17.125Z,1
2022-11-03T03:30:20.122Z,1
2022-11-03T03:35:17.177Z,1
2022-11-03T03:40:17.601Z,1
2022-11-03T03:45:17.147Z,2
2022-11-03T03:50:17.140Z,2
2022-11-03T03:55:20.208Z,2
2022-11-03T04:00:19.348Z,1
2022-11-03T04:05:19.357Z,1
2022-11-03T04:10:19.829Z,1
2022-11-03T04:15:19.381Z,1
2022-11-03T04:20:19.360Z,1
2022-11-03T04:25:19.373Z,1
2022-11-03T04:30:19.399Z,1
2022-11-03T04:35:19.397Z,1
2022-11-03T04:40:19.408Z,1
2022-11-03T04:45:19.730Z,1
2022-11-03T04:50:19.400Z,0
2022-11-03T04:55:19.400Z,1
2022-11-03T05:00:16.204Z,1
2022-11-03T05:05:19.383Z,1
2022-11-03T05:10:19.384Z,1
2022-11-03T05:15:16.426Z,1
2022-11-03T05:20:16.739Z,1
2022-11-03T05:25:16.434Z,1
2022-11-03T05:30:16.429Z,2
2022-11-03T05:35:16.436Z,1
2022-11-03T05:40:16.427Z,1
2022-11-03T05:45:16.419Z,1
2022-11-03T05:50:16.416Z,1
2022-11-03T05:55:16.911Z,1
2022-11-03T06:00:16.432Z,1
2022-11-03T06:05:16.453Z,1
2022-11-03T06:10:16.434Z,1
2022-11-03T06:15:16.423Z,1
2022-11-03T06:20:16.504Z,1
2022-11-03T06:25:16.471Z,1
2022-11-03T06:30:16.779Z,1
2022-11-03T06:35:16.490Z,1
2022-11-03T06:40:16.439Z,1
2022-11-03T06:45:16.464Z,1
2022-11-03T06:50:16.456Z,2
2022-11-03T06:55:17.059Z,2
2022-11-03T07:00:52.252Z,1
2022-11-03T07:05:16.942Z,1
2022-11-03T07:10:16.464Z,1
2022-11-03T07:15:16.480Z,1
2022-11-03T07:20:16.463Z,1
2022-11-03T07:25:16.531Z,1
2022-11-03T07:30:16.496Z,1
2022-11-03T07:35:16.461Z,2
2022-11-03T07:40:16.883Z,1
2022-11-03T07:45:16.481Z,1
2022-11-03T07:50:16.474Z,1
2022-11-03T07:55:17.287Z,1
2022-11-03T08:00:16.503Z,1
2022-11-03T08:05:16.677Z,1
2022-11-03T08:10:16.514Z,2
2022-11-03T08:15:16.850Z,1
2022-11-03T08:20:19.504Z,1
2022-11-03T08:25:19.452Z,1
2022-11-03T08:30:19.469Z,1
2022-11-03T08:35:16.518Z,1
2022-11-03T08:40:16.493Z,1
2022-11-03T08:45:19.959Z,1
2022-11-03T08:50:19.490Z,2
2022-11-03T08:55:19.491Z,1
2022-11-03T09:00:19.505Z,1
2022-11-03T09:05:19.473Z,1
2022-11-03T09:10:21.995Z,1
2022-11-03T09:15:19.507Z,1
2022-11-03T09:20:19.976Z,2
2022-11-03T09:25:19.489Z,1
2022-11-03T09:30:19.520Z,1
2022-11-03T09:35:16.468Z,1
2022-11-03T09:40:19.545Z,1
2022-11-03T09:45:19.519Z,1
2022-11-03T09:50:19.500Z,1
2022-11-03T09:55:19.975Z,1
2022-11-03T10:00:19.584Z,1
2022-11-03T10:05:19.511Z,1
2022-11-03T10:10:19.728Z,1
2022-11-03T10:15:19.559Z,1
2022-11-03T10:20:19.549Z,1
2022-11-03T10:25:19.526Z,1
2022-11-03T10:30:19.928Z,1
2022-11-03T10:35:16.361Z,1
2022-11-03T10:40:42.042Z,1
2022-11-03T10:45:16.582Z,1
2022-11-03T10:50:16.645Z,1
2022-11-03T10:55:23.771Z,1
2022-11-03T11:00:16.752Z,1
2022-11-03T11:05:17.023Z,1
2022-11-03T11:10:16.578Z,1
2022-11-03T11:15:16.580Z,1
2022-11-03T11:20:16.582Z,2
2022-11-03T11:25:16.602Z,2
2022-11-03T11:30:16.568Z,2
2022-11-03T11:35:16.484Z,1
2022-11-03T11:40:20.215Z,1
2022-11-03T11:45:19.523Z,1
2022-11-03T11:50:34.269Z,1
2022-11-03T11:55:19.594Z,1
2022-11-03T12:00:19.556Z,1
2022-11-03T12:05:19.575Z,1
2022-11-03T12:10:19.566Z,2
2022-11-03T12:15:19.957Z,2
2022-11-03T12:20:16.615Z,1
2022-11-03T12:25:19.598Z,2
2022-11-03T12:30:19.588Z,2
2022-11-03T12:35:16.610Z,2
2022-11-03T12:40:16.694Z,2
2022-11-03T12:45:16.649Z,1
2022-11-03T12:50:17.092Z,2
2022-11-03T12:55:16.544Z,2
2022-11-03T13:00:19.661Z,3
2022-11-03T13:05:19.602Z,3
2022-11-03T13:10:19.585Z,2
2022-11-03T13:15:19.610Z,2
2022-11-03T13:20:20.085Z,2
2022-11-03T13:25:19.684Z,2
2022-11-03T13:30:16.684Z,3
2022-11-03T13:35:16.653Z,3
2022-11-03T13:40:50.312Z,2
2022-11-03T13:45:16.647Z,2
2022-11-03T13:50:20.168Z,2
2022-11-03T13:55:58.740Z,2
2022-11-03T14:00:19.648Z,2
2022-11-03T14:05:19.623Z,2
2022-11-03T14:10:19.613Z,2
2022-11-03T14:15:19.656Z,2
2022-11-03T14:20:19.756Z,2
2022-11-03T14:25:19.656Z,2
2022-11-03T14:30:17.057Z,2
2022-11-03T14:35:16.679Z,2
2022-11-03T14:40:16.649Z,2
2022-11-03T14:45:16.682Z,3
2022-11-03T14:50:16.642Z,3
2022-11-03T14:55:16.679Z,3
2022-11-03T15:00:16.671Z,3
2022-11-03T15:05:17.068Z,2
2022-11-03T15:10:16.742Z,2
2022-11-03T15:15:19.687Z,8
2022-11-03T15:20:19.780Z,8
2022-11-03T15:25:23.707Z,12
2022-11-03T15:30:16.648Z,4
2022-11-03T15:35:20.292Z,4
2022-11-03T15:40:16.695Z,5
2022-11-03T15:45:16.717Z,5
2022-11-03T15:50:16.706Z,2
2022-11-03T15:55:19.705Z,4
2022-11-03T16:00:19.702Z,5
2022-11-03T16:05:24.740Z,5
2022-11-03T16:10:20.034Z,9
2022-11-03T16:15:19.686Z,8
2022-11-03T16:20:19.700Z,5
2022-11-03T16:25:21.484Z,4
2022-11-03T16:30:19.685Z,5
2022-11-03T16:35:19.682Z,4
2022-11-03T16:40:20.291Z,8
2022-11-03T16:45:20.083Z,6
2022-11-03T16:50:16.591Z,3
2022-11-03T16:55:16.762Z,7
2022-11-03T17:00:16.718Z,9
2022-11-03T17:05:16.748Z,8
2022-11-03T17:10:19.774Z,7
2022-11-03T17:15:19.737Z,6
2022-11-03T17:20:20.166Z,8
2022-11-03T17:25:19.709Z,7
2022-11-03T17:30:16.716Z,10
2022-11-03T17:35:19.776Z,4
2022-11-03T17:40:19.742Z,3
2022-11-03T17:45:19.722Z,5
2022-11-03T17:50:16.732Z,5
2022-11-03T17:55:17.137Z,6
2022-11-03T18:00:16.774Z,7
2022-11-03T18:05:20.206Z,6
2022-11-03T18:10:19.773Z,8
2022-11-03T18:15:16.739Z,10
2022-11-03T18:20:16.816Z,10
2022-11-03T18:25:20.221Z,6
2022-11-03T18:30:19.771Z,5
2022-11-03T18:35:19.748Z,8
2022-11-03T18:40:19.728Z,8
2022-11-03T18:45:19.751Z,6
2022-11-03T18:50:16.764Z,5
2022-11-03T18:55:16.792Z,6
2022-11-03T19:00:17.252Z,5
2022-11-03T19:05:16.783Z,7
2022-11-03T19:10:16.777Z,5
2022-11-03T19:15:19.791Z,6
2022-11-03T19:20:19.777Z,6
2022-11-03T19:25:16.606Z,9
2022-11-03T19:30:20.221Z,8
2022-11-03T19:35:19.792Z,7
2022-11-03T19:40:19.759Z,7
2022-11-03T19:45:19.778Z,7
2022-11-03T19:50:16.792Z,8
2022-11-03T19:55:16.811Z,8
2022-11-03T20:00:16.860Z,7
2022-11-03T20:05:20.309Z,7
2022-11-03T20:10:19.791Z,7
2022-11-03T20:15:16.836Z,7
2022-11-03T20:20:19.816Z,8
2022-11-03T20:25:19.777Z,6
2022-11-03T20:30:19.794Z,6
2022-11-03T20:35:23.033Z,5
2022-11-03T20:40:20.145Z,6
2022-11-03T20:45:19.790Z,7
2022-11-03T20:50:19.796Z,6
2022-11-03T20:55:19.814Z,6
2022-11-03T21:00:19.796Z,5
2022-11-03T21:05:19.814Z,5
2022-11-03T21:10:20.524Z,4
2022-11-03T21:15:17.230Z,5
2022-11-03T21:20:16.812Z,4
2022-11-03T21:25:16.846Z,5
2022-11-03T21:30:16.857Z,5
2022-11-03T21:35:16.884Z,4
2022-11-03T21:40:19.848Z,5
2022-11-03T21:45:16.864Z,5
2022-11-03T21:50:17.346Z,4
2022-11-03T21:55:16.874Z,6
2022-11-03T22:00:19.878Z,6
2022-11-03T22:05:16.877Z,5
2022-11-03T22:10:19.875Z,5
2022-11-03T22:15:19.830Z,6
2022-11-03T22:20:20.225Z,9
2022-11-03T22:25:19.856Z,9
2022-11-03T22:30:19.889Z,9
2022-11-03T22:35:19.894Z,8
2022-11-03T22:40:19.843Z,10
2022-11-03T22:45:19.876Z,9
2022-11-03T22:50:19.879Z,9
2022-11-03T22:55:20.226Z,9
2022-11-03T23:00:19.834Z,10
2022-11-03T23:05:19.913Z,9
2022-11-03T23:10:16.960Z,13
2022-11-03T23:15:16.893Z,7
2022-11-03T23:20:16.881Z,10
2022-11-03T23:25:16.906Z,9
2022-11-03T23:30:17.414Z,10
2022-11-03T23:35:16.913Z,9
2022-11-03T23:40:20.374Z,9
2022-11-03T23:45:16.895Z,13
2022-11-03T23:50:16.931Z,11
2022-11-03T23:55:19.883Z,11
